Time;durP1;ratioP1;P1;durP2;ratioP2;P2;SDS_P1;SDS_P2;PMS_P1;PMS_P2;Temp;Humidity;BMP_temperature;BMP_pressure;BME280_temperature;BME280_humidity;BME280_pressure;Samples;Min_cycle;Max_cycle;Signal;HPM_P1;HPM_P2
2023/02/08 00:01:38;;;;;;;17.58;8.23;;;0.80;99.90;;;;;;5035689;28;20040;-38
2023/02/08 00:04:04;;;;;;;19.83;8.68;;;0.80;99.90;;;;;;5034226;28;20029;-39
2023/02/08 00:06:30;;;;;;;20.38;7.63;;;0.80;99.90;;;;;;5016921;28;20488;-39
2023/02/08 00:08:55;;;;;;;15.82;7.95;;;0.80;99.90;;;;;;5016330;28;20040;-34
2023/02/08 00:11:21;;;;;;;23.25;9.07;;;0.80;99.90;;;;;;5019424;28;20393;-39
2023/02/08 00:13:47;;;;;;;15.50;7.72;;;0.70;99.90;;;;;;5029368;28;20482;-39
2023/02/08 00:16:13;;;;;;;19.30;7.95;;;0.70;99.90;;;;;;5031624;28;20117;-39
2023/02/08 00:18:39;;;;;;;18.95;9.52;;;0.80;99.90;;;;;;5034341;28;20505;-32
2023/02/08 00:21:13;;;;;;;21.25;8.43;;;0.70;99.90;;;;;;5033396;28;20037;-35
2023/02/08 00:23:39;;;;;;;18.63;8.38;;;0.70;99.90;;;;;;5034411;28;20037;-36
2023/02/08 00:26:05;;;;;;;20.95;9.05;;;0.70;99.90;;;;;;5029295;28;20036;-36
2023/02/08 00:28:31;;;;;;;20.30;8.75;;;0.70;99.90;;;;;;5028190;28;20552;-33
2023/02/08 00:30:56;;;;;;;19.40;8.77;;;0.70;99.90;;;;;;5027857;28;20116;-35
2023/02/08 00:33:22;;;;;;;20.60;7.95;;;0.70;99.90;;;;;;5025782;28;20497;-39
2023/02/08 00:35:48;;;;;;;18.35;8.15;;;0.70;99.90;;;;;;5020347;28;20107;-37
2023/02/08 00:38:14;;;;;;;18.58;8.70;;;0.70;99.90;;;;;;5026231;28;20049;-48
2023/02/08 00:40:39;;;;;;;19.63;8.27;;;0.70;99.90;;;;;;5016887;28;20112;-48
2023/02/08 00:43:05;;;;;;;19.17;8.23;;;0.70;99.90;;;;;;5022867;28;20061;-39
2023/02/08 00:45:32;;;;;;;14.90;8.15;;;0.70;99.90;;;;;;5026618;28;20022;-47
2023/02/08 00:47:57;;;;;;;18.83;8.40;;;0.70;99.90;;;;;;5028380;28;20087;-48
2023/02/08 00:50:23;;;;;;;17.42;7.88;;;0.70;99.90;;;;;;5033267;28;20034;-48
2023/02/08 00:52:49;;;;;;;22.60;8.07;;;0.70;99.90;;;;;;5029826;28;20033;-48
2023/02/08 00:55:15;;;;;;;16.88;8.00;;;0.60;99.90;;;;;;5032297;28;20029;-42
2023/02/08 00:57:40;;;;;;;19.95;8.43;;;0.60;99.90;;;;;;5032433;28;20025;-47
2023/02/08 01:00:07;;;;;;;18.80;8.68;;;0.60;99.90;;;;;;5031919;28;20036;-47
2023/02/08 01:02:33;;;;;;;15.98;7.45;;;0.60;99.90;;;;;;5025780;28;20021;-49
2023/02/08 01:04:59;;;;;;;17.60;9.05;;;0.60;99.90;;;;;;5034351;28;20394;-48
2023/02/08 01:07:25;;;;;;;14.75;7.70;;;0.50;99.90;;;;;;5030444;28;20021;-38
2023/02/08 01:09:50;;;;;;;19.42;8.25;;;0.60;99.90;;;;;;5029293;28;20025;-40
2023/02/08 01:12:16;;;;;;;17.13;8.10;;;0.60;99.90;;;;;;5027593;28;20026;-40
2023/02/08 01:14:42;;;;;;;17.05;8.73;;;0.60;99.90;;;;;;5033087;28;20386;-40
2023/02/08 01:17:07;;;;;;;16.30;7.68;;;0.50;99.90;;;;;;5030629;28;20025;-40
2023/02/08 01:19:33;;;;;;;19.05;8.63;;;0.50;99.90;;;;;;5030750;28;20037;-39
2023/02/08 01:21:58;;;;;;;17.33;8.10;;;0.50;99.90;;;;;;5029575;28;20124;-39
2023/02/08 01:24:24;;;;;;;16.20;7.18;;;0.50;99.90;;;;;;5024586;28;20034;-37
2023/02/08 01:26:50;;;;;;;19.02;7.78;;;0.50;99.90;;;;;;5022416;28;20029;-33
2023/02/08 01:29:16;;;;;;;16.27;7.40;;;0.50;99.90;;;;;;5033756;28;20045;-36
2023/02/08 01:31:43;;;;;;;16.30;7.63;;;0.50;99.90;;;;;;5031198;28;20017;-37
2023/02/08 01:34:10;;;;;;;17.70;7.38;;;0.50;99.90;;;;;;5033605;28;20498;-33
2023/02/08 01:36:37;;;;;;;21.85;10.70;;;0.50;99.90;;;;;;5033722;28;20478;-35
2023/02/08 01:39:04;;;;;;;18.55;7.30;;;0.60;99.90;;;;;;5033698;28;20061;-38
2023/02/08 01:41:36;;;;;;;15.77;8.48;;;0.50;99.90;;;;;;5024533;28;20472;-38
2023/02/08 01:44:06;;;;;;;13.90;7.63;;;0.50;99.90;;;;;;5033929;28;20388;-38
2023/02/08 01:46:34;;;;;;;16.50;6.80;;;0.60;99.90;;;;;;5033548;28;20079;-36
2023/02/08 01:49:08;;;;;;;18.05;7.97;;;0.60;99.90;;;;;;5033676;28;20485;-48
2023/02/08 01:51:39;;;;;;;14.48;7.40;;;0.70;99.90;;;;;;5033625;28;20431;-48
2023/02/08 01:54:08;;;;;;;14.60;7.82;;;0.80;99.90;;;;;;5035663;28;20462;-48
2023/02/08 01:56:37;;;;;;;16.83;7.07;;;0.90;99.90;;;;;;5027668;28;20029;-32
2023/02/08 01:59:07;;;;;;;14.20;7.75;;;0.80;99.90;;;;;;5031384;28;20385;-37
2023/02/08 02:01:33;;;;;;;14.05;7.18;;;0.80;99.90;;;;;;5032596;28;20033;-37
2023/02/08 02:04:04;;;;;;;13.73;6.75;;;0.80;99.90;;;;;;5032864;28;20029;-39
2023/02/08 02:06:39;;;;;;;15.70;8.13;;;0.80;99.90;;;;;;5036296;28;20036;-34
2023/02/08 02:09:13;;;;;;;16.88;6.82;;;0.80;99.90;;;;;;5026111;28;20523;-36
2023/02/08 02:11:39;;;;;;;17.42;7.38;;;0.80;99.90;;;;;;5033155;28;20029;-37
2023/02/08 02:14:05;;;;;;;11.80;6.25;;;0.90;99.90;;;;;;5031604;28;20029;-37
2023/02/08 02:16:31;;;;;;;14.38;6.28;;;1.00;99.90;;;;;;5029141;28;20490;-47
2023/02/08 02:18:57;;;;;;;17.55;7.03;;;1.00;99.90;;;;;;5011909;28;20073;-47
2023/02/08 02:21:43;;;;;;;18.45;7.68;;;1.00;99.90;;;;;;5013998;28;20025;-32
2023/02/08 02:24:58;;;;;;;13.75;7.20;;;0.90;99.90;;;;;;5022474;28;20029;-37
2023/02/08 02:27:59;;;;;;;13.23;6.47;;;0.90;99.90;;;;;;5012462;28;20490;-37
2023/02/08 02:30:54;;;;;;;15.20;7.30;;;0.70;99.90;;;;;;5003580;28;20116;-38
2023/02/08 02:33:34;;;;;;;10.90;6.43;;;0.70;99.90;;;;;;5025167;28;20033;-36
2023/02/08 02:36:09;;;;;;;12.80;7.03;;;0.70;99.90;;;;;;5025739;28;20068;-38
2023/02/08 02:38:35;;;;;;;14.68;7.00;;;0.60;99.90;;;;;;5030542;28;20521;-33
2023/02/08 02:44:31;;;;;;;13.55;5.80;;;0.50;99.90;;;;;;5021992;28;20087;-33
2023/02/08 02:47:20;;;;;;;14.40;7.13;;;0.50;99.90;;;;;;5028643;28;20030;-31
2023/02/08 02:49:53;;;;;;;12.05;6.05;;;0.60;99.90;;;;;;5032350;28;20073;-36
2023/02/08 02:52:33;;;;;;;15.52;7.00;;;0.60;99.90;;;;;;5031275;28;20502;-35
2023/02/08 02:55:06;;;;;;;10.63;5.65;;;0.60;99.90;;;;;;5015202;28;20038;-36
2023/02/08 02:57:33;;;;;;;12.75;6.63;;;0.50;99.90;;;;;;5012818;28;20490;-35
2023/02/08 02:59:59;;;;;;;17.02;7.82;;;0.50;99.90;;;;;;5013000;28;20514;-36
2023/02/08 03:02:26;;;;;;;15.00;7.97;;;0.40;99.90;;;;;;5020673;28;20022;-36
2023/02/08 03:04:55;;;;;;;15.30;7.17;;;0.40;99.90;;;;;;5030690;28;20061;-36
2023/02/08 03:07:20;;;;;;;13.20;6.97;;;0.40;99.90;;;;;;5031009;28;20029;-37
2023/02/08 03:10:33;;;;;;;13.60;6.47;;;0.40;99.90;;;;;;5022031;28;20022;-38
2023/02/08 03:13:01;;;;;;;10.75;6.28;;;0.30;99.90;;;;;;5011361;28;20029;-37
2023/02/08 03:15:42;;;;;;;13.52;7.38;;;0.30;99.90;;;;;;5030680;28;20057;-37
2023/02/08 03:18:21;;;;;;;16.38;6.68;;;0.20;99.90;;;;;;5032113;28;20041;-36
2023/02/08 03:21:00;;;;;;;14.10;7.32;;;0.20;99.90;;;;;;5014506;28;20056;-33
2023/02/08 03:23:35;;;;;;;13.60;6.72;;;0.10;99.90;;;;;;5026318;28;20060;-35
2023/02/08 03:26:06;;;;;;;12.45;7.03;;;0.00;99.90;;;;;;5032442;28;20033;-34
2023/02/08 03:28:38;;;;;;;18.23;7.78;;;0.00;99.90;;;;;;5029119;28;20486;-39
2023/02/08 03:31:17;;;;;;;15.60;6.95;;;0.00;99.90;;;;;;5031687;28;20386;-36
2023/02/08 03:33:56;;;;;;;13.85;7.32;;;0.10;99.90;;;;;;5032188;28;20105;-35
2023/02/08 03:36:43;;;;;;;14.05;6.43;;;0.10;99.90;;;;;;5032609;28;20482;-32
2023/02/08 03:39:15;;;;;;;12.52;6.80;;;0.10;99.90;;;;;;5019934;28;20405;-37
2023/02/08 03:41:45;;;;;;;14.15;6.63;;;0.10;99.90;;;;;;5012890;28;20026;-38
2023/02/08 03:44:28;;;;;;;17.77;8.18;;;0.10;99.90;;;;;;5016890;28;20025;-39
2023/02/08 03:47:00;;;;;;;14.88;6.25;;;0.10;99.90;;;;;;5021398;28;20532;-39
2023/02/08 03:49:31;;;;;;;15.55;6.95;;;0.10;99.90;;;;;;5031890;28;20033;-39
2023/02/08 03:52:01;;;;;;;10.85;6.30;;;0.10;99.90;;;;;;5026356;28;20486;-39
2023/02/08 03:54:30;;;;;;;13.20;6.80;;;0.10;99.90;;;;;;5025998;28;20113;-40
2023/02/08 03:57:24;;;;;;;11.32;6.13;;;0.10;99.90;;;;;;5026716;28;20053;-39
2023/02/08 03:59:58;;;;;;;17.90;6.63;;;0.10;99.90;;;;;;5034707;28;20041;-39
2023/02/08 04:02:27;;;;;;;16.15;6.38;;;0.10;99.90;;;;;;5031510;28;20030;-38
2023/02/08 04:04:54;;;;;;;16.60;7.03;;;0.10;99.90;;;;;;5019601;28;20030;-32
2023/02/08 04:07:20;;;;;;;16.60;6.18;;;0.10;99.90;;;;;;5033029;28;20025;-37
2023/02/08 04:09:45;;;;;;;12.10;6.53;;;0.00;99.90;;;;;;5019660;28;20079;-37
2023/02/08 04:12:11;;;;;;;16.08;6.95;;;0.00;99.90;;;;;;5015796;28;20068;-38
2023/02/08 04:14:37;;;;;;;10.55;6.22;;;0.00;99.90;;;;;;5015455;28;20429;-37
2023/02/08 04:17:02;;;;;;;18.13;6.85;;;0.00;99.90;;;;;;5015164;28;20379;-36
2023/02/08 04:19:28;;;;;;;13.23;6.05;;;-0.10;99.90;;;;;;5034458;28;20078;-40
2023/02/08 04:21:54;;;;;;;8.95;5.70;;;-0.10;99.90;;;;;;5028315;28;20036;-35
2023/02/08 04:24:19;;;;;;;17.88;7.88;;;-0.10;99.90;;;;;;5033530;28;20029;-38
2023/02/08 04:26:46;;;;;;;15.48;7.50;;;-0.10;99.90;;;;;;5035060;28;20393;-49
2023/02/08 04:29:11;;;;;;;16.13;7.05;;;-0.10;99.90;;;;;;5016706;28;20034;-40
2023/02/08 04:31:37;;;;;;;15.95;7.00;;;-0.10;99.90;;;;;;5013921;28;20049;-39
2023/02/08 04:34:03;;;;;;;12.38;6.20;;;-0.10;99.90;;;;;;5015213;28;20021;-40
2023/02/08 04:36:28;;;;;;;15.25;7.38;;;-0.10;99.90;;;;;;5015189;28;20041;-40
2023/02/08 04:38:54;;;;;;;13.63;6.50;;;-0.10;99.90;;;;;;5028140;28;20032;-40
2023/02/08 04:41:19;;;;;;;17.13;8.13;;;-0.10;99.90;;;;;;5020257;28;20034;-40
2023/02/08 04:43:45;;;;;;;14.98;7.22;;;-0.10;99.90;;;;;;5034828;28;20057;-38
2023/02/08 04:46:11;;;;;;;12.63;6.72;;;0.00;99.90;;;;;;5034851;28;20037;-38
2023/02/08 04:48:36;;;;;;;11.52;6.53;;;0.00;99.90;;;;;;5020458;28;20456;-42
2023/02/08 04:51:02;;;;;;;16.48;6.68;;;0.00;99.90;;;;;;5014900;28;20152;-41
2023/02/08 04:53:28;;;;;;;16.30;6.72;;;0.10;99.90;;;;;;5020904;28;20029;-39
2023/02/08 04:55:54;;;;;;;13.43;6.88;;;0.10;99.90;;;;;;5032022;28;20029;-40
2023/02/08 04:58:20;;;;;;;14.20;6.18;;;0.10;99.90;;;;;;5023538;28;20108;-41
2023/02/08 05:00:45;;;;;;;18.70;6.20;;;0.10;99.90;;;;;;5034434;28;20083;-44
2023/02/08 05:03:12;;;;;;;15.55;6.53;;;0.10;99.90;;;;;;5031158;28;20025;-40
2023/02/08 05:05:38;;;;;;;14.00;5.97;;;0.10;99.90;;;;;;5033367;28;20363;-39
2023/02/08 05:08:04;;;;;;;12.70;6.13;;;0.00;99.90;;;;;;5020884;28;20075;-44
2023/02/08 05:10:29;;;;;;;15.07;5.55;;;0.00;99.90;;;;;;5015295;28;20033;-34
2023/02/08 05:12:55;;;;;;;15.45;5.75;;;0.00;99.90;;;;;;5031574;28;20028;-38
2023/02/08 05:15:20;;;;;;;14.00;6.93;;;0.00;99.90;;;;;;5034013;28;20104;-32
2023/02/08 05:17:46;;;;;;;15.25;6.85;;;0.00;99.90;;;;;;5026307;28;20401;-39
2023/02/08 05:20:12;;;;;;;12.77;6.40;;;0.10;99.90;;;;;;5022060;28;20100;-34
2023/02/08 05:22:38;;;;;;;13.85;6.07;;;0.10;99.90;;;;;;5031361;28;20146;-34
2023/02/08 05:25:04;;;;;;;15.05;6.28;;;0.10;99.90;;;;;;5021221;28;20084;-34
2023/02/08 05:27:30;;;;;;;15.93;6.32;;;0.10;99.90;;;;;;5034087;28;20088;-34
2023/02/08 05:29:56;;;;;;;16.63;7.20;;;0.10;99.90;;;;;;5033937;28;20483;-34
2023/02/08 05:32:21;;;;;;;10.65;6.10;;;0.00;99.90;;;;;;5033645;28;20410;-39
2023/02/08 05:34:47;;;;;;;18.45;6.68;;;0.00;99.90;;;;;;5033751;28;20028;-36
2023/02/08 05:37:13;;;;;;;18.55;6.40;;;0.00;99.90;;;;;;5033741;28;20056;-39
2023/02/08 05:39:39;;;;;;;11.35;6.30;;;0.00;99.90;;;;;;5022336;28;20026;-39
2023/02/08 05:42:05;;;;;;;13.40;5.82;;;0.00;99.90;;;;;;5013862;28;20025;-37
2023/02/08 05:44:30;;;;;;;13.77;6.10;;;0.00;99.90;;;;;;5013864;28;20029;-34
2023/02/08 05:46:56;;;;;;;19.08;6.45;;;0.00;99.90;;;;;;5013798;28;20473;-39
2023/02/08 05:49:21;;;;;;;16.00;6.97;;;0.00;99.90;;;;;;5017794;28;20536;-36
2023/02/08 05:51:49;;;;;;;14.93;6.97;;;0.10;99.90;;;;;;5032301;28;20036;-37
2023/02/08 05:54:14;;;;;;;15.93;6.45;;;0.10;99.90;;;;;;5013963;28;20036;-37
2023/02/08 05:56:40;;;;;;;16.55;6.68;;;0.20;99.90;;;;;;5023294;28;20536;-48
2023/02/08 05:59:06;;;;;;;18.77;7.28;;;0.30;99.90;;;;;;5033293;28;20100;-49
2023/02/08 06:01:31;;;;;;;15.27;6.30;;;0.40;99.90;;;;;;5031854;28;20383;-48
2023/02/08 06:03:59;;;;;;;9.82;5.45;;;0.40;99.90;;;;;;5030602;28;20034;-48
2023/02/08 06:06:24;;;;;;;18.47;6.03;;;0.50;99.90;;;;;;5032768;28;20032;-47
2023/02/08 06:08:50;;;;;;;13.32;6.18;;;0.50;99.90;;;;;;5033132;28;20026;-48
2023/02/08 06:11:18;;;;;;;14.52;6.82;;;0.50;99.90;;;;;;5028451;28;20021;-48
2023/02/08 06:13:44;;;;;;;14.55;6.97;;;0.40;99.90;;;;;;5027323;28;20466;-48
2023/02/08 06:16:14;;;;;;;11.32;6.05;;;0.40;99.90;;;;;;5064692;28;20034;-48
2023/02/08 06:18:47;;;;;;;12.27;5.93;;;0.30;99.90;;;;;;5032996;28;20498;-48
2023/02/08 06:21:13;;;;;;;13.20;6.10;;;0.40;99.90;;;;;;5033028;28;20030;-35
2023/02/08 06:23:38;;;;;;;12.50;6.35;;;0.40;99.90;;;;;;5032835;28;20079;-48
2023/02/08 06:26:04;;;;;;;12.32;6.53;;;0.40;99.90;;;;;;5027240;28;20544;-48
2023/02/08 06:28:30;;;;;;;12.95;5.93;;;0.40;99.90;;;;;;5013102;28;20095;-48
2023/02/08 06:30:55;;;;;;;11.10;5.38;;;0.40;99.90;;;;;;5024586;28;20018;-47
2023/02/08 06:33:21;;;;;;;16.20;6.53;;;0.30;99.90;;;;;;5032802;28;20097;-47
2023/02/08 06:35:50;;;;;;;16.17;6.57;;;0.30;99.90;;;;;;5032793;28;20032;-37
2023/02/08 06:38:15;;;;;;;15.45;7.05;;;0.40;99.90;;;;;;5032815;28;20021;-35
2023/02/08 06:40:41;;;;;;;15.05;6.40;;;0.50;99.90;;;;;;5030885;28;20029;-34
2023/02/08 06:43:07;;;;;;;12.93;5.97;;;0.40;99.90;;;;;;5032716;28;20030;-37
2023/02/08 06:45:33;;;;;;;11.63;6.07;;;0.40;99.90;;;;;;5031956;28;20067;-38
2023/02/08 06:47:58;;;;;;;16.00;6.40;;;0.40;99.90;;;;;;5028982;28;20025;-48
2023/02/08 06:50:24;;;;;;;12.77;6.57;;;0.40;99.90;;;;;;5026516;28;20026;-48
2023/02/08 06:52:50;;;;;;;11.48;6.25;;;0.30;99.90;;;;;;5019688;28;20022;-48
2023/02/08 06:55:15;;;;;;;11.55;5.85;;;0.30;99.90;;;;;;5014117;28;20026;-49
2023/02/08 06:57:41;;;;;;;15.45;5.95;;;0.20;99.90;;;;;;5019868;28;20056;-39
2023/02/08 07:00:07;;;;;;;15.77;6.25;;;0.30;99.90;;;;;;5021702;28;20034;-39
2023/02/08 07:02:33;;;;;;;11.15;6.00;;;0.30;99.90;;;;;;5022004;28;20465;-40
2023/02/08 07:04:58;;;;;;;15.50;6.80;;;0.30;99.90;;;;;;5031716;28;20105;-41
2023/02/08 07:07:24;;;;;;;14.85;7.43;;;0.30;99.90;;;;;;5032562;28;20364;-40
2023/02/08 07:09:50;;;;;;;17.58;7.57;;;0.30;99.90;;;;;;5031083;28;20037;-41
2023/02/08 07:12:16;;;;;;;12.77;6.50;;;0.30;99.90;;;;;;5024486;28;20032;-40
2023/02/08 07:14:42;;;;;;;13.07;6.80;;;0.40;99.90;;;;;;5019524;28;20029;-37
2023/02/08 07:17:08;;;;;;;17.40;6.80;;;0.30;99.90;;;;;;5024275;28;20563;-40
2023/02/08 07:19:34;;;;;;;11.68;6.82;;;0.30;99.90;;;;;;5032151;28;20493;-39
2023/02/08 07:22:03;;;;;;;13.30;6.97;;;0.30;99.90;;;;;;5026584;28;20038;-45
2023/02/08 07:24:29;;;;;;;16.52;6.75;;;0.30;99.90;;;;;;5018506;28;20129;-40
2023/02/08 07:26:55;;;;;;;12.05;6.25;;;0.30;99.90;;;;;;5036238;28;20029;-40
2023/02/08 07:29:21;;;;;;;12.88;5.65;;;0.30;99.90;;;;;;5032114;28;20508;-40
2023/02/08 07:31:46;;;;;;;13.93;6.30;;;0.30;99.90;;;;;;5023976;28;20029;-40
2023/02/08 07:34:12;;;;;;;16.15;6.65;;;0.30;99.90;;;;;;5036109;28;20504;-42
2023/02/08 07:36:38;;;;;;;15.13;6.68;;;0.30;99.90;;;;;;5025457;28;20096;-41
2023/02/08 07:39:03;;;;;;;13.88;6.68;;;0.40;99.90;;;;;;5016151;28;20099;-41
2023/02/08 07:41:29;;;;;;;14.93;6.65;;;0.40;99.90;;;;;;5035810;28;20551;-42
2023/02/08 07:43:55;;;;;;;12.95;6.57;;;0.40;99.90;;;;;;5031196;28;20040;-41
2023/02/08 07:46:21;;;;;;;11.32;6.28;;;0.50;99.90;;;;;;5034108;28;20446;-40
2023/02/08 07:48:51;;;;;;;21.33;7.35;;;0.50;99.90;;;;;;5033529;28;20371;-39
2023/02/08 07:51:17;;;;;;;13.20;6.03;;;0.60;99.90;;;;;;5031086;28;20031;-39
2023/02/08 07:53:42;;;;;;;13.95;6.40;;;0.50;99.90;;;;;;5034678;28;20537;-39
2023/02/08 07:56:09;;;;;;;22.17;7.53;;;0.60;99.90;;;;;;5028376;28;20125;-38
2023/02/08 07:58:35;;;;;;;8.95;5.53;;;0.60;99.90;;;;;;5035843;28;20401;-38
2023/02/08 08:01:00;;;;;;;11.02;5.97;;;0.70;99.90;;;;;;5031459;28;20021;-37
2023/02/08 08:03:26;;;;;;;15.60;6.25;;;0.60;99.90;;;;;;5033038;28;20069;-37
2023/02/08 08:05:52;;;;;;;15.60;7.03;;;0.60;99.90;;;;;;5033476;28;20834;-39
2023/02/08 08:08:18;;;;;;;14.35;7.25;;;0.60;99.90;;;;;;5033567;28;20033;-35
2023/02/08 08:10:45;;;;;;;12.75;6.68;;;0.70;99.90;;;;;;5033453;28;20441;-36
2023/02/08 08:13:11;;;;;;;14.77;6.15;;;0.70;99.90;;;;;;5035237;28;20028;-40
2023/02/08 08:15:37;;;;;;;9.18;5.50;;;0.70;99.90;;;;;;5017389;28;20466;-37
2023/02/08 08:18:03;;;;;;;14.82;6.30;;;0.80;99.90;;;;;;5015163;28;20042;-39
2023/02/08 08:20:28;;;;;;;15.40;7.20;;;0.80;99.90;;;;;;5016455;28;20054;-40
2023/02/08 08:22:54;;;;;;;14.95;6.82;;;0.90;99.90;;;;;;5024323;28;20032;-39
2023/02/08 08:25:20;;;;;;;13.25;6.35;;;0.90;99.90;;;;;;5026984;28;20465;-40
2023/02/08 08:27:45;;;;;;;11.50;6.05;;;1.00;99.90;;;;;;5022911;28;20041;-40
2023/02/08 08:30:14;;;;;;;11.65;6.10;;;1.00;99.90;;;;;;5014337;28;20022;-40
2023/02/08 08:32:40;;;;;;;17.30;7.80;;;1.00;99.90;;;;;;5025448;28;20021;-41
2023/02/08 08:35:07;;;;;;;12.68;6.53;;;1.10;99.90;;;;;;5026829;28;20025;-38
2023/02/08 08:37:33;;;;;;;9.95;5.47;;;1.10;99.90;;;;;;5024556;28;20620;-41
2023/02/08 08:39:59;;;;;;;15.75;7.18;;;1.20;99.90;;;;;;5034894;28;20062;-38
2023/02/08 08:42:27;;;;;;;19.35;7.75;;;1.20;99.90;;;;;;5017307;28;20427;-36
2023/02/08 08:44:53;;;;;;;;;;;1.30;99.90;;;;;;5026796;28;20021;-41
2023/02/08 08:47:19;;;;;;;20.75;6.78;;;1.30;99.90;;;;;;5032970;28;19908;-40
2023/02/08 08:49:44;;;;;;;12.82;6.30;;;1.40;99.90;;;;;;5033412;28;20025;-41
2023/02/08 08:52:11;;;;;;;17.50;6.18;;;1.50;99.90;;;;;;5034956;28;20029;-42
2023/02/08 08:54:37;;;;;;;15.10;6.43;;;1.50;99.90;;;;;;5034654;28;20029;-41
2023/02/08 08:57:04;;;;;;;14.02;6.55;;;1.60;99.90;;;;;;5031822;28;20435;-41
2023/02/08 08:59:30;;;;;;;21.92;7.25;;;1.70;99.90;;;;;;5014181;28;20493;-40
2023/02/08 09:01:55;;;;;;;10.02;5.88;;;1.70;99.90;;;;;;5023819;28;20025;-40
2023/02/08 09:04:21;;;;;;;18.48;6.80;;;1.80;99.90;;;;;;5021582;28;20470;-40
2023/02/08 09:06:51;;;;;;;14.80;6.68;;;1.90;99.90;;;;;;5019849;28;20026;-40
2023/02/08 09:09:18;;;;;;;13.18;6.38;;;1.90;99.90;;;;;;5016822;28;20537;-41
2023/02/08 09:11:44;;;;;;;11.32;5.95;;;1.90;99.90;;;;;;5021760;28;20026;-41
2023/02/08 09:14:09;;;;;;;15.77;6.55;;;2.00;99.90;;;;;;5033972;28;20474;-52
2023/02/08 09:16:35;;;;;;;16.02;7.38;;;2.10;99.90;;;;;;5016160;28;20482;-41
2023/02/08 09:19:02;;;;;;;16.63;7.32;;;2.20;99.90;;;;;;5014190;28;20033;-40
2023/02/08 09:21:28;;;;;;;11.32;6.47;;;2.40;99.90;;;;;;5023638;28;20029;-39
2023/02/08 09:23:54;;;;;;;14.10;8.15;;;2.40;99.90;;;;;;5024550;28;20088;-39
2023/02/08 09:26:20;;;;;;;18.20;7.47;;;2.50;99.90;;;;;;5023021;28;20105;-41
2023/02/08 09:28:46;;;;;;;13.60;7.10;;;2.50;99.90;;;;;;5030243;28;20473;-41
2023/02/08 09:31:20;;;;;;;14.35;5.85;;;2.60;99.90;;;;;;5023611;28;20115;-41
2023/02/08 09:33:46;;;;;;;15.82;7.03;;;2.70;99.90;;;;;;5018929;28;20026;-40
2023/02/08 09:36:13;;;;;;;14.48;6.13;;;2.90;99.90;;;;;;5017819;28;20033;-40
2023/02/08 09:38:39;;;;;;;24.13;6.80;;;3.00;99.90;;;;;;5030227;28;20032;-37
2023/02/08 09:41:11;;;;;;;15.15;7.40;;;3.00;99.90;;;;;;5015076;28;20152;-36
2023/02/08 09:44:14;;;;;;;10.93;5.68;;;3.10;99.90;;;;;;5019091;28;20026;-40
2023/02/08 09:46:45;;;;;;;15.82;6.22;;;3.20;99.90;;;;;;5019851;28;20095;-42
2023/02/08 09:49:19;;;;;;;13.45;7.13;;;3.30;99.90;;;;;;5022847;28;20034;-37
2023/02/08 09:51:48;;;;;;;15.48;9.20;;;3.30;99.90;;;;;;5028330;28;20024;-39
2023/02/08 09:54:30;;;;;;;20.20;7.30;;;3.40;99.90;;;;;;5022521;28;20477;-41
2023/02/08 09:56:58;;;;;;;14.55;7.30;;;3.50;99.90;;;;;;5021596;28;20029;-41
2023/02/08 09:59:28;;;;;;;22.25;11.77;;;3.60;99.90;;;;;;5030932;28;21391;-40
2023/02/08 10:02:13;;;;;;;17.75;7.72;;;3.60;99.90;;;;;;5031051;28;20029;-40
2023/02/08 10:05:04;;;;;;;13.68;6.43;;;3.70;99.90;;;;;;5026532;28;20029;-41
2023/02/08 10:07:32;;;;;;;12.27;6.32;;;3.70;99.90;;;;;;5027948;28;20497;-38
2023/02/08 10:10:03;;;;;;;16.05;6.10;;;3.70;99.90;;;;;;5018050;28;20044;-40
2023/02/08 10:13:18;;;;;;;10.45;5.68;;;3.80;99.90;;;;;;5027121;28;20035;-40
2023/02/08 10:15:54;;;;;;;13.10;5.93;;;3.90;99.90;;;;;;5016484;28;20044;-38
2023/02/08 10:18:48;;;;;;;15.55;7.53;;;4.00;99.90;;;;;;5027296;28;20084;-41
2023/02/08 10:21:54;;;;;;;11.48;6.88;;;4.10;99.90;;;;;;5024226;28;20511;-38
2023/02/08 10:25:03;;;;;;;11.52;6.85;;;4.10;99.90;;;;;;5021954;28;20033;-39
2023/02/08 10:28:14;;;;;;;13.68;6.97;;;4.20;99.90;;;;;;5005124;28;20034;-40
2023/02/08 10:31:13;;;;;;;12.30;5.65;;;4.20;99.90;;;;;;5011811;28;20086;-41
2023/02/08 10:33:59;;;;;;;17.83;7.13;;;4.40;99.90;;;;;;5013013;28;20072;-34
2023/02/08 10:36:29;;;;;;;11.38;6.93;;;4.40;99.90;;;;;;5022697;28;20100;-42
2023/02/08 10:38:57;;;;;;;10.75;6.07;;;4.50;99.90;;;;;;5022888;28;20026;-41
2023/02/08 10:41:30;;;;;;;14.13;7.30;;;4.60;99.90;;;;;;5033386;28;20065;-41
2023/02/08 10:44:02;;;;;;;13.55;6.65;;;4.70;99.90;;;;;;5031156;28;20092;-33
2023/02/08 10:46:41;;;;;;;11.38;5.97;;;4.70;99.90;;;;;;5014752;28;20272;-34
2023/02/08 10:49:15;;;;;;;11.60;5.38;;;4.80;99.90;;;;;;5012913;28;20040;-38
2023/02/08 10:51:41;;;;;;;11.05;5.90;;;5.00;99.90;;;;;;5024694;28;20018;-36
2023/02/08 10:54:14;;;;;;;11.15;5.00;;;5.00;99.90;;;;;;5032087;28;20033;-39
2023/02/08 10:57:04;;;;;;;15.40;5.70;;;5.00;99.90;;;;;;5036789;28;20067;-37
2023/02/08 10:59:32;;;;;;;15.43;6.32;;;5.00;99.90;;;;;;5035382;28;20036;-34
2023/02/08 11:01:58;;;;;;;9.02;5.50;;;5.00;99.90;;;;;;5029102;28;20147;-34
2023/02/08 11:04:24;;;;;;;10.00;6.22;;;5.10;99.90;;;;;;5036788;28;20079;-38
2023/02/08 11:06:50;;;;;;;15.20;6.22;;;5.10;99.90;;;;;;5036839;28;20421;-38
2023/02/08 11:09:23;;;;;;;10.73;5.40;;;5.20;99.90;;;;;;5036284;28;20013;-36
2023/02/08 11:11:51;;;;;;;14.80;5.35;;;5.30;99.90;;;;;;5036459;28;20385;-38
2023/02/08 11:14:22;;;;;;;11.55;5.57;;;5.30;99.90;;;;;;5035686;28;20461;-45
2023/02/08 11:16:53;;;;;;;8.80;5.05;;;5.30;99.90;;;;;;5036549;28;20056;-40
2023/02/08 11:19:30;;;;;;;11.00;5.47;;;5.30;99.90;;;;;;5027480;28;20045;-41
2023/02/08 11:21:56;;;;;;;15.35;5.78;;;5.50;99.90;;;;;;5016724;28;20033;-40
2023/02/08 11:24:38;;;;;;;13.45;5.03;;;5.50;99.90;;;;;;5029460;28;20033;-40
2023/02/08 11:27:25;;;;;;;11.60;4.80;;;5.60;99.90;;;;;;5036217;28;20555;-36
2023/02/08 11:30:11;;;;;;;10.05;4.90;;;5.70;99.90;;;;;;5036145;28;20030;-40
2023/02/08 11:32:38;;;;;;;7.35;4.78;;;5.80;99.90;;;;;;5036045;28;20072;-34
2023/02/08 11:35:21;;;;;;;11.00;4.97;;;5.80;99.90;;;;;;5036097;28;20029;-36
2023/02/08 11:37:52;;;;;;;9.05;5.20;;;5.90;99.90;;;;;;5017394;28;20029;-38
2023/02/08 11:40:22;;;;;;;13.65;5.93;;;5.90;99.90;;;;;;5030157;28;20026;-36
2023/02/08 11:42:48;;;;;;;14.20;6.57;;;5.90;99.90;;;;;;5020114;28;20505;-37
2023/02/08 11:45:29;;;;;;;10.82;6.07;;;6.10;99.90;;;;;;5027965;28;20025;-40
2023/02/08 11:47:55;;;;;;;9.52;5.82;;;6.20;99.90;;;;;;5035613;28;20087;-40
2023/02/08 11:50:25;;;;;;;15.68;9.07;;;6.30;99.90;;;;;;5034384;28;20026;-43
2023/02/08 11:53:00;;;;;;;12.80;6.68;;;6.30;99.90;;;;;;5028168;28;20121;-39
2023/02/08 11:55:29;;;;;;;13.55;6.03;;;6.40;99.90;;;;;;5016021;28;20447;-38
2023/02/08 11:57:57;;;;;;;9.48;5.35;;;6.40;99.90;;;;;;5017131;28;20025;-41
2023/02/08 12:00:28;;;;;;;13.23;6.60;;;6.50;99.90;;;;;;5022921;28;20021;-40
2023/02/08 12:03:22;;;;;;;18.00;5.85;;;6.50;99.90;;;;;;5027413;28;20064;-40
2023/02/08 12:06:25;;;;;;;15.05;5.03;;;6.60;99.90;;;;;;5035659;28;20021;-39
2023/02/08 12:08:51;;;;;;;14.48;6.38;;;6.60;99.90;;;;;;5030852;28;20406;-40
2023/02/08 12:11:22;;;;;;;12.65;6.07;;;6.50;99.90;;;;;;5033995;28;20029;-40
2023/02/08 12:13:53;;;;;;;10.07;6.50;;;6.50;99.90;;;;;;5034528;28;20036;-40
2023/02/08 12:16:41;;;;;;;13.48;6.55;;;6.50;99.90;;;;;;5026538;28;20030;-40
2023/02/08 12:19:16;;;;;;;14.88;6.78;;;6.40;99.90;;;;;;5016609;28;20441;-40
2023/02/08 12:21:44;;;;;;;10.75;5.25;;;6.50;99.90;;;;;;5015495;28;20026;-39
2023/02/08 12:24:24;;;;;;;12.90;5.55;;;6.60;99.90;;;;;;5015460;28;20065;-39
2023/02/08 12:26:56;;;;;;;10.23;5.25;;;6.70;99.90;;;;;;5025332;28;20037;-40
2023/02/08 12:29:28;;;;;;;14.00;6.10;;;6.60;99.90;;;;;;5033933;28;20470;-37
2023/02/08 12:32:13;;;;;;;11.52;6.40;;;6.70;99.90;;;;;;5015278;28;20094;-36
2023/02/08 12:34:56;;;;;;;11.07;6.20;;;6.60;99.90;;;;;;5015124;28;20034;-38
2023/02/08 12:40:51;;;;;;;13.48;6.40;;;6.70;99.90;;;;;;5035042;28;20075;-38
2023/02/08 12:44:01;;;;;;;13.88;6.13;;;6.70;99.90;;;;;;5031717;28;20057;-36
2023/02/08 12:46:29;;;;;;;12.57;6.03;;;6.80;99.90;;;;;;5035050;28;20367;-33
2023/02/08 12:49:16;;;;;;;15.35;6.45;;;6.80;99.90;;;;;;5034577;28;20108;-38
2023/02/08 12:51:54;;;;;;;12.48;5.63;;;6.80;99.90;;;;;;5034914;28;20737;-37
2023/02/08 12:54:33;;;;;;;8.95;5.35;;;6.90;99.90;;;;;;5034598;28;20103;-38
2023/02/08 12:56:59;;;;;;;7.05;4.60;;;7.10;99.90;;;;;;5032754;28;20490;-47
2023/02/08 12:59:48;;;;;;;9.50;5.28;;;7.10;99.90;;;;;;5034133;28;20021;-46
2023/02/08 13:02:20;;;;;;;9.32;5.43;;;7.20;99.90;;;;;;5026269;28;20032;-41
2023/02/08 13:04:50;;;;;;;9.23;4.93;;;7.30;99.90;;;;;;5034432;28;20022;-39
2023/02/08 13:07:23;;;;;;;15.73;5.50;;;7.30;99.90;;;;;;5015805;28;20038;-40
2023/02/08 13:10:15;;;;;;;9.40;5.45;;;7.40;99.90;;;;;;5021388;28;20481;-38
2023/02/08 13:12:45;;;;;;;12.18;5.25;;;7.50;99.90;;;;;;5022099;28;20041;-38